sensor_id;sensor_type;location;lat;lon;timestamp;P1;durP1;ratioP1;P2;durP2;ratioP2
73684;SDS011;61985;51.070;14.064;2022-12-07T00:01:11;39.67;;;12.57;;
73684;SDS011;61985;51.070;14.064;2022-12-07T00:03:43;31.35;;;11.25;;
73684;SDS011;61985;51.070;14.064;2022-12-07T00:06:11;32.40;;;11.13;;
73684;SDS011;61985;51.070;14.064;2022-12-07T00:08:38;34.50;;;11.38;;
73684;SDS011;61985;51.070;14.064;2022-12-07T00:11:05;29.88;;;11.18;;
73684;SDS011;61985;51.070;14.064;2022-12-07T00:13:32;32.05;;;11.43;;
73684;SDS011;61985;51.070;14.064;2022-12-07T00:16:00;24.52;;;10.10;;
73684;SDS011;61985;51.070;14.064;2022-12-07T00:18:26;26.02;;;10.63;;
73684;SDS011;61985;51.070;14.064;2022-12-07T00:20:52;23.35;;;9.07;;
73684;SDS011;61985;51.070;14.064;2022-12-07T00:23:17;27.77;;;10.63;;
73684;SDS011;61985;51.070;14.064;2022-12-07T00:25:42;24.70;;;9.75;;
73684;SDS011;61985;51.070;14.064;2022-12-07T00:28:08;23.27;;;9.70;;
73684;SDS011;61985;51.070;14.064;2022-12-07T00:30:35;21.40;;;9.25;;
73684;SDS011;61985;51.070;14.064;2022-12-07T00:33:01;22.00;;;9.75;;
73684;SDS011;61985;51.070;14.064;2022-12-07T00:35:26;21.25;;;8.98;;
73684;SDS011;61985;51.070;14.064;2022-12-07T00:37:51;19.63;;;8.60;;
73684;SDS011;61985;51.070;14.064;2022-12-07T00:40:17;25.40;;;10.73;;
73684;SDS011;61985;51.070;14.064;2022-12-07T00:42:42;25.52;;;10.32;;
73684;SDS011;61985;51.070;14.064;2022-12-07T00:45:08;19.92;;;8.43;;
73684;SDS011;61985;51.070;14.064;2022-12-07T00:47:33;20.08;;;9.20;;
73684;SDS011;61985;51.070;14.064;2022-12-07T00:49:59;24.33;;;9.35;;
73684;SDS011;61985;51.070;14.064;2022-12-07T00:52:25;24.65;;;10.18;;
73684;SDS011;61985;51.070;14.064;2022-12-07T00:54:50;19.80;;;8.35;;
73684;SDS011;61985;51.070;14.064;2022-12-07T00:57:15;20.38;;;9.38;;
73684;SDS011;61985;51.070;14.064;2022-12-07T00:59:41;20.35;;;9.18;;
73684;SDS011;61985;51.070;14.064;2022-12-07T01:02:06;20.95;;;9.15;;
73684;SDS011;61985;51.070;14.064;2022-12-07T01:04:33;20.20;;;9.00;;
73684;SDS011;61985;51.070;14.064;2022-12-07T01:06:59;18.02;;;8.38;;
73684;SDS011;61985;51.070;14.064;2022-12-07T01:09:24;21.38;;;9.70;;
73684;SDS011;61985;51.070;14.064;2022-12-07T01:11:50;18.10;;;8.10;;
73684;SDS011;61985;51.070;14.064;2022-12-07T01:14:15;17.95;;;8.63;;
73684;SDS011;61985;51.070;14.064;2022-12-07T01:16:40;20.67;;;8.88;;
73684;SDS011;61985;51.070;14.064;2022-12-07T01:19:06;21.70;;;9.40;;
73684;SDS011;61985;51.070;14.064;2022-12-07T01:21:32;19.70;;;9.25;;
73684;SDS011;61985;51.070;14.064;2022-12-07T01:24:00;23.58;;;8.65;;
73684;SDS011;61985;51.070;14.064;2022-12-07T01:26:27;21.13;;;9.00;;
73684;SDS011;61985;51.070;14.064;2022-12-07T01:28:52;22.95;;;9.73;;
73684;SDS011;61985;51.070;14.064;2022-12-07T01:31:20;22.88;;;9.00;;
73684;SDS011;61985;51.070;14.064;2022-12-07T01:33:48;24.70;;;10.45;;
73684;SDS011;61985;51.070;14.064;2022-12-07T01:36:17;20.77;;;9.70;;
73684;SDS011;61985;51.070;14.064;2022-12-07T01:38:51;23.10;;;10.32;;
73684;SDS011;61985;51.070;14.064;2022-12-07T01:41:21;22.33;;;9.75;;
73684;SDS011;61985;51.070;14.064;2022-12-07T01:46:40;22.27;;;8.77;;
73684;SDS011;61985;51.070;14.064;2022-12-07T01:49:12;22.27;;;9.93;;
73684;SDS011;61985;51.070;14.064;2022-12-07T01:51:42;22.42;;;10.38;;
73684;SDS011;61985;51.070;14.064;2022-12-07T01:54:09;23.10;;;9.52;;
73684;SDS011;61985;51.070;14.064;2022-12-07T01:56:37;24.85;;;10.57;;
73684;SDS011;61985;51.070;14.064;2022-12-07T01:59:05;21.30;;;9.15;;
73684;SDS011;61985;51.070;14.064;2022-12-07T02:01:30;21.23;;;9.65;;
73684;SDS011;61985;51.070;14.064;2022-12-07T02:03:56;23.20;;;9.70;;
73684;SDS011;61985;51.070;14.064;2022-12-07T02:06:24;18.40;;;8.35;;
73684;SDS011;61985;51.070;14.064;2022-12-07T02:08:50;22.40;;;9.68;;
73684;SDS011;61985;51.070;14.064;2022-12-07T02:11:16;22.92;;;9.70;;
73684;SDS011;61985;51.070;14.064;2022-12-07T02:13:42;19.52;;;8.60;;
73684;SDS011;61985;51.070;14.064;2022-12-07T02:21:40;23.23;;;10.30;;
73684;SDS011;61985;51.070;14.064;2022-12-07T02:30:19;20.27;;;9.57;;
73684;SDS011;61985;51.070;14.064;2022-12-07T02:32:56;24.88;;;10.05;;
73684;SDS011;61985;51.070;14.064;2022-12-07T02:35:30;22.27;;;9.30;;
73684;SDS011;61985;51.070;14.064;2022-12-07T02:38:04;25.17;;;10.30;;
73684;SDS011;61985;51.070;14.064;2022-12-07T02:40:46;23.02;;;9.73;;
73684;SDS011;61985;51.070;14.064;2022-12-07T02:43:19;23.77;;;10.50;;
73684;SDS011;61985;51.070;14.064;2022-12-07T02:45:48;23.63;;;10.88;;
73684;SDS011;61985;51.070;14.064;2022-12-07T02:48:16;22.33;;;10.88;;
73684;SDS011;61985;51.070;14.064;2022-12-07T02:50:50;23.77;;;10.32;;
73684;SDS011;61985;51.070;14.064;2022-12-07T02:55:54;22.15;;;9.00;;
73684;SDS011;61985;51.070;14.064;2022-12-07T02:58:23;23.33;;;10.90;;
73684;SDS011;61985;51.070;14.064;2022-12-07T03:00:56;23.25;;;11.02;;
73684;SDS011;61985;51.070;14.064;2022-12-07T03:03:44;20.08;;;8.60;;
73684;SDS011;61985;51.070;14.064;2022-12-07T03:06:16;25.23;;;10.70;;
73684;SDS011;61985;51.070;14.064;2022-12-07T03:11:26;20.15;;;8.48;;
73684;SDS011;61985;51.070;14.064;2022-12-07T03:14:03;16.27;;;7.75;;
73684;SDS011;61985;51.070;14.064;2022-12-07T03:16:55;17.90;;;7.15;;
73684;SDS011;61985;51.070;14.064;2022-12-07T03:19:26;15.68;;;7.82;;
73684;SDS011;61985;51.070;14.064;2022-12-07T03:24:42;16.67;;;6.93;;
73684;SDS011;61985;51.070;14.064;2022-12-07T03:32:37;17.75;;;7.80;;
73684;SDS011;61985;51.070;14.064;2022-12-07T03:37:49;16.35;;;7.63;;
73684;SDS011;61985;51.070;14.064;2022-12-07T03:40:23;16.80;;;7.75;;
73684;SDS011;61985;51.070;14.064;2022-12-07T03:42:54;15.70;;;7.85;;
73684;SDS011;61985;51.070;14.064;2022-12-07T03:45:22;15.05;;;6.60;;
73684;SDS011;61985;51.070;14.064;2022-12-07T03:53:20;17.48;;;8.35;;
73684;SDS011;61985;51.070;14.064;2022-12-07T03:55:49;17.33;;;7.95;;
73684;SDS011;61985;51.070;14.064;2022-12-07T03:58:17;19.08;;;8.30;;
73684;SDS011;61985;51.070;14.064;2022-12-07T04:00:46;18.63;;;7.97;;
73684;SDS011;61985;51.070;14.064;2022-12-07T04:03:12;14.57;;;7.55;;
73684;SDS011;61985;51.070;14.064;2022-12-07T04:05:38;15.93;;;7.38;;
73684;SDS011;61985;51.070;14.064;2022-12-07T04:08:04;20.38;;;7.70;;
73684;SDS011;61985;51.070;14.064;2022-12-07T04:10:29;16.67;;;7.85;;
73684;SDS011;61985;51.070;14.064;2022-12-07T04:12:55;17.58;;;6.82;;
73684;SDS011;61985;51.070;14.064;2022-12-07T04:15:20;17.35;;;7.90;;
73684;SDS011;61985;51.070;14.064;2022-12-07T04:17:46;15.57;;;7.38;;
73684;SDS011;61985;51.070;14.064;2022-12-07T04:20:11;16.52;;;7.30;;
73684;SDS011;61985;51.070;14.064;2022-12-07T04:22:37;17.63;;;7.47;;
73684;SDS011;61985;51.070;14.064;2022-12-07T04:25:02;17.83;;;7.97;;
73684;SDS011;61985;51.070;14.064;2022-12-07T04:27:28;20.63;;;8.73;;
73684;SDS011;61985;51.070;14.064;2022-12-07T04:29:54;18.05;;;7.25;;
73684;SDS011;61985;51.070;14.064;2022-12-07T04:32:20;15.25;;;7.88;;
73684;SDS011;61985;51.070;14.064;2022-12-07T04:34:46;18.35;;;9.02;;
73684;SDS011;61985;51.070;14.064;2022-12-07T04:37:11;17.90;;;8.43;;
73684;SDS011;61985;51.070;14.064;2022-12-07T04:39:37;19.00;;;8.50;;
73684;SDS011;61985;51.070;14.064;2022-12-07T04:42:02;17.83;;;8.48;;
73684;SDS011;61985;51.070;14.064;2022-12-07T04:44:28;17.60;;;8.80;;
73684;SDS011;61985;51.070;14.064;2022-12-07T04:46:54;16.48;;;7.50;;
73684;SDS011;61985;51.070;14.064;2022-12-07T04:49:20;17.50;;;8.43;;
73684;SDS011;61985;51.070;14.064;2022-12-07T04:51:45;17.80;;;8.55;;
73684;SDS011;61985;51.070;14.064;2022-12-07T04:54:12;18.38;;;7.75;;
73684;SDS011;61985;51.070;14.064;2022-12-07T04:56:38;16.48;;;7.70;;
73684;SDS011;61985;51.070;14.064;2022-12-07T04:59:03;15.82;;;7.38;;
73684;SDS011;61985;51.070;14.064;2022-12-07T05:01:30;17.10;;;7.80;;
73684;SDS011;61985;51.070;14.064;2022-12-07T05:03:56;17.27;;;8.02;;
73684;SDS011;61985;51.070;14.064;2022-12-07T05:06:21;16.23;;;7.43;;
73684;SDS011;61985;51.070;14.064;2022-12-07T05:08:47;16.67;;;7.60;;
73684;SDS011;61985;51.070;14.064;2022-12-07T05:11:13;17.42;;;7.43;;
73684;SDS011;61985;51.070;14.064;2022-12-07T05:13:57;16.83;;;8.60;;
73684;SDS011;61985;51.070;14.064;2022-12-07T05:16:22;17.80;;;7.75;;
73684;SDS011;61985;51.070;14.064;2022-12-07T05:18:48;17.20;;;6.93;;
73684;SDS011;61985;51.070;14.064;2022-12-07T05:21:13;16.30;;;7.20;;
73684;SDS011;61985;51.070;14.064;2022-12-07T05:23:38;15.32;;;7.00;;
73684;SDS011;61985;51.070;14.064;2022-12-07T05:26:04;15.00;;;6.88;;
73684;SDS011;61985;51.070;14.064;2022-12-07T05:28:29;15.07;;;6.82;;
73684;SDS011;61985;51.070;14.064;2022-12-07T05:30:54;13.80;;;6.20;;
73684;SDS011;61985;51.070;14.064;2022-12-07T05:33:20;14.60;;;6.82;;
73684;SDS011;61985;51.070;14.064;2022-12-07T05:35:45;14.00;;;7.30;;
73684;SDS011;61985;51.070;14.064;2022-12-07T05:38:10;13.65;;;6.40;;
73684;SDS011;61985;51.070;14.064;2022-12-07T05:40:36;16.70;;;7.22;;
73684;SDS011;61985;51.070;14.064;2022-12-07T05:43:02;19.55;;;8.10;;
73684;SDS011;61985;51.070;14.064;2022-12-07T05:45:27;17.90;;;7.70;;
73684;SDS011;61985;51.070;14.064;2022-12-07T05:47:53;14.68;;;6.88;;
73684;SDS011;61985;51.070;14.064;2022-12-07T05:50:18;17.35;;;7.07;;
73684;SDS011;61985;51.070;14.064;2022-12-07T05:52:44;15.18;;;7.47;;
73684;SDS011;61985;51.070;14.064;2022-12-07T05:55:09;14.40;;;7.20;;
73684;SDS011;61985;51.070;14.064;2022-12-07T05:57:34;16.42;;;7.68;;
73684;SDS011;61985;51.070;14.064;2022-12-07T06:00:00;16.23;;;7.88;;
73684;SDS011;61985;51.070;14.064;2022-12-07T06:02:25;16.30;;;8.02;;
73684;SDS011;61985;51.070;14.064;2022-12-07T06:04:51;17.75;;;8.32;;
73684;SDS011;61985;51.070;14.064;2022-12-07T06:07:16;14.93;;;7.82;;
73684;SDS011;61985;51.070;14.064;2022-12-07T06:09:42;19.65;;;7.85;;
73684;SDS011;61985;51.070;14.064;2022-12-07T06:12:09;16.63;;;7.18;;
73684;SDS011;61985;51.070;14.064;2022-12-07T06:14:54;15.88;;;7.53;;
73684;SDS011;61985;51.070;14.064;2022-12-07T06:17:19;15.68;;;7.53;;
73684;SDS011;61985;51.070;14.064;2022-12-07T06:19:45;17.42;;;8.18;;
73684;SDS011;61985;51.070;14.064;2022-12-07T06:22:10;14.35;;;7.20;;
73684;SDS011;61985;51.070;14.064;2022-12-07T06:24:36;15.98;;;7.45;;
73684;SDS011;61985;51.070;14.064;2022-12-07T06:27:03;16.50;;;7.57;;
73684;SDS011;61985;51.070;14.064;2022-12-07T06:29:29;14.48;;;7.15;;
73684;SDS011;61985;51.070;14.064;2022-12-07T06:31:54;13.70;;;6.78;;
73684;SDS011;61985;51.070;14.064;2022-12-07T06:34:20;14.45;;;6.90;;
73684;SDS011;61985;51.070;14.064;2022-12-07T06:36:50;15.93;;;7.15;;
73684;SDS011;61985;51.070;14.064;2022-12-07T06:39:20;15.50;;;6.97;;
73684;SDS011;61985;51.070;14.064;2022-12-07T06:41:47;14.95;;;6.95;;
73684;SDS011;61985;51.070;14.064;2022-12-07T06:44:13;13.30;;;6.35;;
73684;SDS011;61985;51.070;14.064;2022-12-07T06:46:39;13.32;;;6.18;;
73684;SDS011;61985;51.070;14.064;2022-12-07T06:49:04;15.15;;;6.50;;
73684;SDS011;61985;51.070;14.064;2022-12-07T06:51:30;15.48;;;6.53;;
73684;SDS011;61985;51.070;14.064;2022-12-07T06:53:57;15.07;;;6.13;;
73684;SDS011;61985;51.070;14.064;2022-12-07T06:56:22;14.85;;;6.28;;
73684;SDS011;61985;51.070;14.064;2022-12-07T06:58:48;14.45;;;6.32;;
73684;SDS011;61985;51.070;14.064;2022-12-07T07:01:15;13.57;;;5.93;;
73684;SDS011;61985;51.070;14.064;2022-12-07T07:03:46;11.52;;;5.38;;
73684;SDS011;61985;51.070;14.064;2022-12-07T07:06:12;12.10;;;5.38;;
73684;SDS011;61985;51.070;14.064;2022-12-07T07:08:52;12.25;;;5.60;;
73684;SDS011;61985;51.070;14.064;2022-12-07T07:11:17;11.55;;;5.40;;
73684;SDS011;61985;51.070;14.064;2022-12-07T07:13:44;12.48;;;5.63;;
73684;SDS011;61985;51.070;14.064;2022-12-07T07:16:10;12.98;;;5.93;;
73684;SDS011;61985;51.070;14.064;2022-12-07T07:18:35;13.02;;;5.93;;
73684;SDS011;61985;51.070;14.064;2022-12-07T07:21:01;12.52;;;6.18;;
73684;SDS011;61985;51.070;14.064;2022-12-07T07:23:26;11.10;;;5.13;;
73684;SDS011;61985;51.070;14.064;2022-12-07T07:25:55;9.93;;;5.05;;
73684;SDS011;61985;51.070;14.064;2022-12-07T07:28:21;13.02;;;5.85;;
73684;SDS011;61985;51.070;14.064;2022-12-07T07:30:46;11.90;;;5.78;;
73684;SDS011;61985;51.070;14.064;2022-12-07T07:33:12;11.55;;;5.60;;
73684;SDS011;61985;51.070;14.064;2022-12-07T07:41:35;12.45;;;5.35;;
73684;SDS011;61985;51.070;14.064;2022-12-07T07:44:00;16.65;;;8.82;;
73684;SDS011;61985;51.070;14.064;2022-12-07T07:46:25;10.75;;;5.43;;
73684;SDS011;61985;51.070;14.064;2022-12-07T07:48:51;12.30;;;5.72;;
73684;SDS011;61985;51.070;14.064;2022-12-07T07:51:16;11.90;;;6.13;;
73684;SDS011;61985;51.070;14.064;2022-12-07T07:53:41;11.50;;;4.90;;
73684;SDS011;61985;51.070;14.064;2022-12-07T07:56:07;16.15;;;8.52;;
73684;SDS011;61985;51.070;14.064;2022-12-07T07:58:32;9.68;;;5.45;;
73684;SDS011;61985;51.070;14.064;2022-12-07T08:01:03;22.40;;;15.05;;
73684;SDS011;61985;51.070;14.064;2022-12-07T08:03:29;32.25;;;25.40;;
73684;SDS011;61985;51.070;14.064;2022-12-07T08:05:54;22.90;;;17.67;;
73684;SDS011;61985;51.070;14.064;2022-12-07T08:08:20;11.25;;;5.43;;
73684;SDS011;61985;51.070;14.064;2022-12-07T08:10:45;15.38;;;10.02;;
73684;SDS011;61985;51.070;14.064;2022-12-07T08:13:10;13.45;;;6.20;;
73684;SDS011;61985;51.070;14.064;2022-12-07T08:15:36;14.60;;;8.30;;
73684;SDS011;61985;51.070;14.064;2022-12-07T08:18:03;12.85;;;5.75;;
73684;SDS011;61985;51.070;14.064;2022-12-07T08:20:31;17.73;;;9.23;;
73684;SDS011;61985;51.070;14.064;2022-12-07T08:22:58;13.68;;;7.07;;
73684;SDS011;61985;51.070;14.064;2022-12-07T08:25:24;12.02;;;6.43;;
73684;SDS011;61985;51.070;14.064;2022-12-07T08:27:49;15.48;;;8.45;;
73684;SDS011;61985;51.070;14.064;2022-12-07T08:30:16;12.02;;;6.88;;
73684;SDS011;61985;51.070;14.064;2022-12-07T08:32:42;13.60;;;7.20;;
73684;SDS011;61985;51.070;14.064;2022-12-07T08:35:09;17.88;;;10.15;;
73684;SDS011;61985;51.070;14.064;2022-12-07T08:37:35;13.90;;;7.05;;
73684;SDS011;61985;51.070;14.064;2022-12-07T08:40:00;17.83;;;8.68;;
73684;SDS011;61985;51.070;14.064;2022-12-07T08:42:26;16.17;;;9.27;;
73684;SDS011;61985;51.070;14.064;2022-12-07T08:44:55;15.20;;;8.05;;
73684;SDS011;61985;51.070;14.064;2022-12-07T08:47:21;19.40;;;7.90;;
73684;SDS011;61985;51.070;14.064;2022-12-07T08:49:48;18.52;;;8.75;;
73684;SDS011;61985;51.070;14.064;2022-12-07T08:52:14;15.15;;;7.47;;
73684;SDS011;61985;51.070;14.064;2022-12-07T08:54:40;16.25;;;8.55;;
73684;SDS011;61985;51.070;14.064;2022-12-07T08:57:06;15.85;;;8.13;;
73684;SDS011;61985;51.070;14.064;2022-12-07T08:59:32;36.17;;;16.67;;
73684;SDS011;61985;51.070;14.064;2022-12-07T09:02:00;14.23;;;7.53;;
73684;SDS011;61985;51.070;14.064;2022-12-07T09:04:25;13.13;;;6.78;;
73684;SDS011;61985;51.070;14.064;2022-12-07T09:06:51;13.77;;;6.70;;
73684;SDS011;61985;51.070;14.064;2022-12-07T09:09:17;12.95;;;6.63;;
73684;SDS011;61985;51.070;14.064;2022-12-07T09:11:42;14.10;;;7.85;;
73684;SDS011;61985;51.070;14.064;2022-12-07T09:14:09;15.18;;;8.43;;
73684;SDS011;61985;51.070;14.064;2022-12-07T09:16:34;16.70;;;7.35;;
73684;SDS011;61985;51.070;14.064;2022-12-07T09:19:00;15.38;;;8.38;;
73684;SDS011;61985;51.070;14.064;2022-12-07T09:21:25;15.85;;;8.02;;
73684;SDS011;61985;51.070;14.064;2022-12-07T09:23:50;17.52;;;7.75;;
73684;SDS011;61985;51.070;14.064;2022-12-07T09:26:16;14.68;;;8.23;;
73684;SDS011;61985;51.070;14.064;2022-12-07T09:28:41;23.00;;;11.88;;
73684;SDS011;61985;51.070;14.064;2022-12-07T09:31:06;37.85;;;18.88;;
73684;SDS011;61985;51.070;14.064;2022-12-07T09:33:32;41.55;;;19.75;;
73684;SDS011;61985;51.070;14.064;2022-12-07T09:35:58;16.55;;;9.90;;
73684;SDS011;61985;51.070;14.064;2022-12-07T09:38:23;24.67;;;13.05;;
73684;SDS011;61985;51.070;14.064;2022-12-07T09:40:51;16.60;;;8.48;;
73684;SDS011;61985;51.070;14.064;2022-12-07T09:43:18;18.83;;;8.52;;
73684;SDS011;61985;51.070;14.064;2022-12-07T09:45:47;14.38;;;8.18;;
73684;SDS011;61985;51.070;14.064;2022-12-07T09:48:18;15.75;;;6.95;;
73684;SDS011;61985;51.070;14.064;2022-12-07T09:50:46;17.05;;;9.23;;
73684;SDS011;61985;51.070;14.064;2022-12-07T09:53:26;17.50;;;8.30;;
73684;SDS011;61985;51.070;14.064;2022-12-07T09:55:54;16.37;;;7.97;;
73684;SDS011;61985;51.070;14.064;2022-12-07T09:58:23;16.45;;;7.40;;
73684;SDS011;61985;51.070;14.064;2022-12-07T10:01:01;13.65;;;6.75;;
73684;SDS011;61985;51.070;14.064;2022-12-07T10:03:37;11.13;;;6.10;;
73684;SDS011;61985;51.070;14.064;2022-12-07T10:06:04;11.13;;;5.68;;
73684;SDS011;61985;51.070;14.064;2022-12-07T10:08:31;11.88;;;6.65;;
73684;SDS011;61985;51.070;14.064;2022-12-07T10:10:57;14.60;;;7.95;;
73684;SDS011;61985;51.070;14.064;2022-12-07T10:16:03;11.90;;;5.90;;
73684;SDS011;61985;51.070;14.064;2022-12-07T10:18:30;12.60;;;6.93;;
73684;SDS011;61985;51.070;14.064;2022-12-07T10:23:32;12.68;;;5.57;;
73684;SDS011;61985;51.070;14.064;2022-12-07T10:25:58;13.13;;;6.30;;
73684;SDS011;61985;51.070;14.064;2022-12-07T10:28:27;9.93;;;5.13;;
73684;SDS011;61985;51.070;14.064;2022-12-07T10:31:15;11.50;;;5.30;;
73684;SDS011;61985;51.070;14.064;2022-12-07T10:38:51;12.65;;;6.50;;
73684;SDS011;61985;51.070;14.064;2022-12-07T10:41:28;10.88;;;5.65;;
73684;SDS011;61985;51.070;14.064;2022-12-07T10:43:55;10.02;;;4.85;;
73684;SDS011;61985;51.070;14.064;2022-12-07T12:09:09;15.13;;;6.88;;
73684;SDS011;61985;51.070;14.064;2022-12-07T12:14:32;9.40;;;5.20;;
73684;SDS011;61985;51.070;14.064;2022-12-07T12:20:00;9.85;;;4.65;;
73684;SDS011;61985;51.070;14.064;2022-12-07T12:23:00;12.90;;;6.25;;
73684;SDS011;61985;51.070;14.064;2022-12-07T12:28:49;12.95;;;5.97;;
73684;SDS011;61985;51.070;14.064;2022-12-07T12:31:39;11.40;;;6.95;;
73684;SDS011;61985;51.070;14.064;2022-12-07T12:37:14;9.90;;;5.25;;
73684;SDS011;61985;51.070;14.064;2022-12-07T12:42:43;12.35;;;4.70;;
73684;SDS011;61985;51.070;14.064;2022-12-07T12:47:43;8.43;;;5.05;;
73684;SDS011;61985;51.070;14.064;2022-12-07T12:50:19;12.75;;;5.10;;
73684;SDS011;61985;51.070;14.064;2022-12-07T12:52:50;11.48;;;5.57;;
73684;SDS011;61985;51.070;14.064;2022-12-07T12:55:21;10.20;;;4.75;;
73684;SDS011;61985;51.070;14.064;2022-12-07T13:00:47;10.35;;;5.10;;
73684;SDS011;61985;51.070;14.064;2022-12-07T13:03:33;14.45;;;7.65;;
73684;SDS011;61985;51.070;14.064;2022-12-07T13:06:34;9.68;;;5.18;;
73684;SDS011;61985;51.070;14.064;2022-12-07T13:08:52;9.95;;;5.47;;
73684;SDS011;61985;51.070;14.064;2022-12-07T13:11:20;8.75;;;4.78;;
73684;SDS011;61985;51.070;14.064;2022-12-07T13:14:37;12.02;;;4.82;;
73684;SDS011;61985;51.070;14.064;2022-12-07T13:16:58;11.38;;;5.50;;
73684;SDS011;61985;51.070;14.064;2022-12-07T13:19:48;12.23;;;5.43;;
73684;SDS011;61985;51.070;14.064;2022-12-07T13:24:57;9.10;;;4.72;;
73684;SDS011;61985;51.070;14.064;2022-12-07T13:27:28;13.90;;;5.38;;
73684;SDS011;61985;51.070;14.064;2022-12-07T13:29:56;9.55;;;5.03;;
73684;SDS011;61985;51.070;14.064;2022-12-07T13:32:26;8.18;;;5.07;;
73684;SDS011;61985;51.070;14.064;2022-12-07T13:34:53;10.00;;;5.78;;
73684;SDS011;61985;51.070;14.064;2022-12-07T13:37:25;9.30;;;5.13;;
73684;SDS011;61985;51.070;14.064;2022-12-07T13:39:54;13.52;;;5.47;;
73684;SDS011;61985;51.070;14.064;2022-12-07T13:42:25;7.47;;;4.82;;
73684;SDS011;61985;51.070;14.064;2022-12-07T13:44:51;10.75;;;3.78;;
73684;SDS011;61985;51.070;14.064;2022-12-07T13:47:38;5.82;;;3.63;;
73684;SDS011;61985;51.070;14.064;2022-12-07T13:50:27;8.45;;;2.70;;
73684;SDS011;61985;51.070;14.064;2022-12-07T13:52:55;5.07;;;2.80;;
73684;SDS011;61985;51.070;14.064;2022-12-07T13:55:22;4.40;;;2.83;;
73684;SDS011;61985;51.070;14.064;2022-12-07T13:57:49;4.47;;;2.58;;
73684;SDS011;61985;51.070;14.064;2022-12-07T14:00:18;3.53;;;2.42;;
73684;SDS011;61985;51.070;14.064;2022-12-07T14:05:30;5.72;;;2.30;;
73684;SDS011;61985;51.070;14.064;2022-12-07T14:10:26;3.72;;;2.15;;
73684;SDS011;61985;51.070;14.064;2022-12-07T14:12:53;5.47;;;1.87;;
73684;SDS011;61985;51.070;14.064;2022-12-07T14:15:20;5.10;;;2.50;;
73684;SDS011;61985;51.070;14.064;2022-12-07T14:17:52;5.75;;;3.08;;
73684;SDS011;61985;51.070;14.064;2022-12-07T14:20:28;7.00;;;2.88;;
73684;SDS011;61985;51.070;14.064;2022-12-07T14:23:05;8.00;;;4.10;;
73684;SDS011;61985;51.070;14.064;2022-12-07T14:25:47;7.22;;;3.53;;
73684;SDS011;61985;51.070;14.064;2022-12-07T14:28:27;8.52;;;4.50;;
73684;SDS011;61985;51.070;14.064;2022-12-07T14:30:54;7.63;;;3.72;;
73684;SDS011;61985;51.070;14.064;2022-12-07T14:33:19;9.45;;;4.10;;
73684;SDS011;61985;51.070;14.064;2022-12-07T14:35:46;8.45;;;3.28;;
73684;SDS011;61985;51.070;14.064;2022-12-07T14:38:11;7.75;;;3.75;;
73684;SDS011;61985;51.070;14.064;2022-12-07T14:40:37;8.32;;;4.18;;
73684;SDS011;61985;51.070;14.064;2022-12-07T14:43:10;8.07;;;3.70;;
73684;SDS011;61985;51.070;14.064;2022-12-07T14:45:38;10.77;;;5.65;;
73684;SDS011;61985;51.070;14.064;2022-12-07T14:48:04;11.20;;;4.90;;
73684;SDS011;61985;51.070;14.064;2022-12-07T14:50:30;9.70;;;4.30;;
73684;SDS011;61985;51.070;14.064;2022-12-07T14:53:05;9.07;;;4.00;;
73684;SDS011;61985;51.070;14.064;2022-12-07T14:55:36;9.13;;;3.75;;
73684;SDS011;61985;51.070;14.064;2022-12-07T14:58:02;10.65;;;4.50;;
73684;SDS011;61985;51.070;14.064;2022-12-07T15:00:27;7.10;;;4.00;;
73684;SDS011;61985;51.070;14.064;2022-12-07T15:02:53;10.38;;;4.07;;
73684;SDS011;61985;51.070;14.064;2022-12-07T15:05:20;9.07;;;4.20;;
73684;SDS011;61985;51.070;14.064;2022-12-07T15:07:46;9.20;;;5.38;;
73684;SDS011;61985;51.070;14.064;2022-12-07T15:12:41;11.60;;;6.32;;
73684;SDS011;61985;51.070;14.064;2022-12-07T15:15:06;8.52;;;4.88;;
73684;SDS011;61985;51.070;14.064;2022-12-07T15:17:32;13.15;;;5.15;;
73684;SDS011;61985;51.070;14.064;2022-12-07T15:19:57;14.00;;;5.68;;
73684;SDS011;61985;51.070;14.064;2022-12-07T15:22:23;9.88;;;4.97;;
73684;SDS011;61985;51.070;14.064;2022-12-07T15:24:48;9.88;;;5.88;;
73684;SDS011;61985;51.070;14.064;2022-12-07T15:27:14;8.50;;;4.93;;
73684;SDS011;61985;51.070;14.064;2022-12-07T15:29:39;10.48;;;4.70;;
73684;SDS011;61985;51.070;14.064;2022-12-07T15:32:04;9.57;;;4.85;;
73684;SDS011;61985;51.070;14.064;2022-12-07T15:34:30;10.23;;;6.38;;
73684;SDS011;61985;51.070;14.064;2022-12-07T15:36:56;11.10;;;5.28;;
73684;SDS011;61985;51.070;14.064;2022-12-07T15:39:22;31.65;;;24.08;;
73684;SDS011;61985;51.070;14.064;2022-12-07T15:41:47;11.45;;;5.22;;
73684;SDS011;61985;51.070;14.064;2022-12-07T15:44:13;12.25;;;5.25;;
73684;SDS011;61985;51.070;14.064;2022-12-07T15:46:58;6.38;;;3.65;;
73684;SDS011;61985;51.070;14.064;2022-12-07T15:49:23;11.50;;;7.72;;
73684;SDS011;61985;51.070;14.064;2022-12-07T15:51:49;6.57;;;3.38;;
73684;SDS011;61985;51.070;14.064;2022-12-07T15:54:24;8.98;;;4.22;;
73684;SDS011;61985;51.070;14.064;2022-12-07T15:56:51;8.32;;;5.20;;
73684;SDS011;61985;51.070;14.064;2022-12-07T15:59:17;7.10;;;4.40;;
73684;SDS011;61985;51.070;14.064;2022-12-07T16:01:43;7.40;;;3.40;;
73684;SDS011;61985;51.070;14.064;2022-12-07T16:04:09;8.63;;;3.67;;
73684;SDS011;61985;51.070;14.064;2022-12-07T16:06:34;5.95;;;3.40;;
73684;SDS011;61985;51.070;14.064;2022-12-07T16:09:00;9.35;;;4.28;;
73684;SDS011;61985;51.070;14.064;2022-12-07T16:11:26;8.02;;;4.07;;
73684;SDS011;61985;51.070;14.064;2022-12-07T16:13:51;8.95;;;5.00;;
73684;SDS011;61985;51.070;14.064;2022-12-07T16:16:17;11.45;;;4.53;;
73684;SDS011;61985;51.070;14.064;2022-12-07T16:18:56;8.13;;;4.30;;
73684;SDS011;61985;51.070;14.064;2022-12-07T16:21:22;7.85;;;3.90;;
73684;SDS011;61985;51.070;14.064;2022-12-07T16:23:47;7.95;;;4.20;;
73684;SDS011;61985;51.070;14.064;2022-12-07T16:26:17;9.07;;;4.85;;
73684;SDS011;61985;51.070;14.064;2022-12-07T16:28:44;15.48;;;9.13;;
73684;SDS011;61985;51.070;14.064;2022-12-07T16:31:11;21.85;;;11.50;;
73684;SDS011;61985;51.070;14.064;2022-12-07T16:33:38;12.60;;;6.82;;
73684;SDS011;61985;51.070;14.064;2022-12-07T16:36:05;8.80;;;4.53;;
73684;SDS011;61985;51.070;14.064;2022-12-07T16:38:31;30.08;;;16.60;;
73684;SDS011;61985;51.070;14.064;2022-12-07T16:40:57;11.63;;;5.60;;
73684;SDS011;61985;51.070;14.064;2022-12-07T16:43:22;10.25;;;5.70;;
73684;SDS011;61985;51.070;14.064;2022-12-07T16:45:48;8.45;;;4.93;;
73684;SDS011;61985;51.070;14.064;2022-12-07T16:48:14;11.02;;;4.55;;
73684;SDS011;61985;51.070;14.064;2022-12-07T16:50:41;9.10;;;6.15;;
73684;SDS011;61985;51.070;14.064;2022-12-07T16:53:07;12.55;;;6.47;;
73684;SDS011;61985;51.070;14.064;2022-12-07T16:55:40;8.65;;;4.35;;
73684;SDS011;61985;51.070;14.064;2022-12-07T16:58:08;8.20;;;4.43;;
73684;SDS011;61985;51.070;14.064;2022-12-07T17:00:35;9.95;;;4.65;;
73684;SDS011;61985;51.070;14.064;2022-12-07T17:03:02;9.32;;;3.92;;
73684;SDS011;61985;51.070;14.064;2022-12-07T17:05:28;11.60;;;4.43;;
73684;SDS011;61985;51.070;14.064;2022-12-07T17:07:54;11.07;;;4.25;;
73684;SDS011;61985;51.070;14.064;2022-12-07T17:10:20;9.13;;;4.00;;
73684;SDS011;61985;51.070;14.064;2022-12-07T17:12:46;10.13;;;5.72;;
73684;SDS011;61985;51.070;14.064;2022-12-07T17:15:11;7.53;;;3.67;;